createdAt,value
2022-12-17T00:00:48.860Z,97071.00
2022-12-17T00:03:35.084Z,97077.00
2022-12-17T00:06:21.335Z,97067.00
2022-12-17T00:09:06.857Z,97079.00
2022-12-17T00:11:52.486Z,97095.00
2022-12-17T00:14:43.318Z,96690.00
2022-12-17T00:17:28.756Z,96676.00
2022-12-17T00:20:14.258Z,96718.00
2022-12-17T00:22:59.766Z,97091.00
2022-12-17T00:25:45.742Z,97102.00
2022-12-17T00:28:32.982Z,97107.00
2022-12-17T00:31:22.706Z,97106.00
2022-12-17T00:34:08.574Z,97103.00
2022-12-17T00:36:54.314Z,97109.00
2022-12-17T00:39:41.271Z,97104.00
2022-12-17T00:42:26.975Z,97112.00
2022-12-17T00:45:12.775Z,97106.00
2022-12-17T00:47:59.544Z,97096.00
2022-12-17T00:50:45.129Z,97101.00
2022-12-17T00:53:30.797Z,97104.00
2022-12-17T00:56:16.590Z,97111.00
2022-12-17T00:59:01.955Z,97113.00
2022-12-17T01:01:47.767Z,97114.00
2022-12-17T01:04:34.743Z,97110.00
2022-12-17T01:07:20.418Z,97107.00
2022-12-17T01:10:06.869Z,97120.00
2022-12-17T01:12:53.037Z,97135.00
2022-12-17T01:15:42.195Z,97122.00
2022-12-17T01:18:27.702Z,97130.00
2022-12-17T01:21:16.317Z,97130.00
2022-12-17T01:24:02.004Z,97134.00
2022-12-17T01:26:47.719Z,97133.00
2022-12-17T01:29:33.632Z,97159.00
2022-12-17T01:32:19.217Z,97142.00
2022-12-17T01:35:05.061Z,97151.00
2022-12-17T01:37:52.033Z,97150.00
2022-12-17T01:40:37.725Z,97126.00
2022-12-17T01:43:29.598Z,97122.00
2022-12-17T01:46:16.266Z,97145.00
2022-12-17T01:49:06.222Z,97159.00
2022-12-17T01:51:53.681Z,97174.00
2022-12-17T01:54:41.516Z,97160.00
2022-12-17T01:57:24.198Z,97175.00
2022-12-17T02:00:18.041Z,97172.00
2022-12-17T02:03:11.982Z,97172.00
2022-12-17T02:06:13.780Z,97182.00
2022-12-17T02:09:08.250Z,97174.00
2022-12-17T02:12:08.758Z,97187.00
2022-12-17T02:15:03.257Z,97188.00
2022-12-17T02:17:57.104Z,97186.00
2022-12-17T02:20:49.728Z,97184.00
2022-12-17T02:23:50.537Z,97188.00
2022-12-17T02:26:51.962Z,97188.00
2022-12-17T02:29:41.696Z,97151.00
2022-12-17T02:32:42.005Z,97186.00
2022-12-17T02:35:34.610Z,97183.00
2022-12-17T02:38:20.679Z,97198.00
2022-12-17T02:41:08.162Z,97195.00
2022-12-17T02:43:58.425Z,97184.00
2022-12-17T02:46:44.075Z,97189.00
2022-12-17T02:49:29.999Z,97193.00
2022-12-17T02:52:15.881Z,97191.00
2022-12-17T02:55:01.744Z,97193.00
2022-12-17T02:57:53.535Z,97187.00
2022-12-17T03:00:42.068Z,97202.00
2022-12-17T03:03:28.121Z,97205.00
2022-12-17T03:06:13.950Z,97202.00
2022-12-17T03:08:59.865Z,97206.00
2022-12-17T03:11:47.785Z,97202.00
2022-12-17T03:14:34.077Z,97208.00
2022-12-17T03:17:20.876Z,97214.00
2022-12-17T03:20:06.594Z,97215.00
2022-12-17T03:22:52.541Z,97213.00
2022-12-17T03:25:38.118Z,97215.00
2022-12-17T03:28:26.694Z,97178.00
2022-12-17T03:31:12.352Z,97221.00
2022-12-17T03:33:59.595Z,97229.00
2022-12-17T03:36:45.255Z,97233.00
2022-12-17T03:39:31.359Z,97253.00
2022-12-17T03:42:16.898Z,97231.00
2022-12-17T03:45:02.364Z,97238.00
2022-12-17T03:47:49.398Z,97226.00
2022-12-17T03:50:36.742Z,97236.00
2022-12-17T03:53:23.738Z,97160.00
2022-12-17T03:56:09.435Z,97242.00
2022-12-17T03:58:55.057Z,96897.00
2022-12-17T04:01:40.623Z,97248.00
2022-12-17T04:04:26.480Z,97249.00
2022-12-17T04:07:13.730Z,97253.00
2022-12-17T04:10:01.790Z,97256.00
2022-12-17T04:12:47.342Z,97266.00
2022-12-17T04:15:33.009Z,97269.00
2022-12-17T04:18:18.890Z,97260.00
2022-12-17T04:21:04.398Z,97279.00
2022-12-17T04:23:51.148Z,97290.00
2022-12-17T04:26:36.701Z,97286.00
2022-12-17T04:29:22.402Z,97283.00
2022-12-17T04:32:10.668Z,97294.00
2022-12-17T04:34:56.651Z,97281.00
2022-12-17T04:37:42.181Z,97304.00
2022-12-17T04:40:30.713Z,97279.00
2022-12-17T04:43:23.385Z,97291.00
2022-12-17T04:46:09.073Z,97302.00
2022-12-17T04:48:55.005Z,97287.00
2022-12-17T04:51:40.726Z,97277.00
2022-12-17T04:54:26.298Z,97295.00
2022-12-17T04:57:13.172Z,97299.00
2022-12-17T04:59:58.680Z,97290.00
2022-12-17T05:02:44.711Z,97301.00
2022-12-17T05:05:30.585Z,97299.00
2022-12-17T05:08:16.990Z,97303.00
2022-12-17T05:11:02.492Z,97314.00
2022-12-17T05:13:49.590Z,97316.00
2022-12-17T05:16:35.005Z,97326.00
2022-12-17T05:19:20.525Z,97317.00
2022-12-17T05:22:06.001Z,97318.00
2022-12-17T05:24:51.609Z,97324.00
2022-12-17T05:27:37.414Z,97336.00
2022-12-17T05:30:25.961Z,97354.00
2022-12-17T05:33:18.226Z,97365.00
2022-12-17T05:36:03.810Z,97002.00
2022-12-17T05:38:49.302Z,97323.00
2022-12-17T05:41:34.813Z,97341.00
2022-12-17T05:44:20.989Z,97346.00
2022-12-17T05:47:07.733Z,97354.00
2022-12-17T05:49:56.462Z,97353.00
2022-12-17T05:52:47.634Z,97383.00
2022-12-17T05:55:29.741Z,97359.00
2022-12-17T05:58:21.825Z,97378.00
2022-12-17T06:01:07.400Z,97366.00
2022-12-17T06:03:54.502Z,97372.00
2022-12-17T06:06:40.377Z,97389.00
2022-12-17T06:09:26.174Z,97391.00
2022-12-17T06:12:11.661Z,97399.00
2022-12-17T06:14:57.094Z,97398.00
2022-12-17T06:17:42.585Z,97400.00
2022-12-17T06:20:30.271Z,97397.00
2022-12-17T06:23:19.872Z,97400.00
2022-12-17T06:26:05.762Z,97400.00
2022-12-17T06:28:51.709Z,97425.00
2022-12-17T06:31:37.289Z,97397.00
2022-12-17T06:34:23.086Z,97412.00
2022-12-17T06:37:10.326Z,97406.00
2022-12-17T06:39:55.935Z,97425.00
2022-12-17T06:42:41.597Z,97409.00
2022-12-17T06:45:27.956Z,97413.00
2022-12-17T06:48:20.829Z,97418.00
2022-12-17T06:51:06.416Z,97425.00
2022-12-17T06:53:53.644Z,97433.00
2022-12-17T06:56:39.177Z,97433.00
2022-12-17T06:59:24.777Z,97454.00
2022-12-17T07:02:10.431Z,97445.00
2022-12-17T07:04:56.266Z,97430.00
2022-12-17T07:07:41.803Z,97459.00
2022-12-17T07:10:28.925Z,97444.00
2022-12-17T07:13:14.605Z,97450.00
2022-12-17T07:16:00.071Z,97454.00
2022-12-17T07:18:46.034Z,97473.00
2022-12-17T07:21:31.851Z,97478.00
2022-12-17T07:24:17.396Z,97479.00
2022-12-17T07:27:04.161Z,97482.00
2022-12-17T07:29:49.871Z,97491.00
2022-12-17T07:32:36.007Z,97486.00
2022-12-17T07:35:22.195Z,97483.00
2022-12-17T07:38:07.707Z,97491.00
2022-12-17T07:40:53.682Z,97532.00
2022-12-17T07:43:52.951Z,97490.00
2022-12-17T07:46:39.061Z,97521.00
2022-12-17T07:49:26.221Z,97431.00
2022-12-17T07:52:12.140Z,97528.00
2022-12-17T07:54:58.160Z,97511.00
2022-12-17T07:57:43.625Z,97524.00
2022-12-17T08:00:32.635Z,97519.00
2022-12-17T08:03:19.071Z,97520.00
2022-12-17T08:06:05.262Z,97513.00
2022-12-17T08:08:50.716Z,97546.00
2022-12-17T08:11:36.266Z,97558.00
2022-12-17T08:14:22.032Z,97545.00
2022-12-17T08:17:08.780Z,97534.00
2022-12-17T08:19:54.500Z,97555.00
2022-12-17T08:22:40.106Z,97551.00
2022-12-17T08:25:27.189Z,97545.00
2022-12-17T08:28:41.311Z,97428.00
2022-12-17T08:31:20.791Z,97538.00
2022-12-17T08:34:08.417Z,97562.00
2022-12-17T08:36:54.422Z,97558.00
2022-12-17T08:39:39.920Z,97556.00
2022-12-17T08:42:25.447Z,97552.00
2022-12-17T08:45:11.012Z,97539.00
2022-12-17T08:48:02.082Z,97568.00
2022-12-17T08:50:51.244Z,97551.00
2022-12-17T08:53:37.266Z,97540.00
2022-12-17T08:56:24.290Z,97547.00
2022-12-17T08:59:09.917Z,97568.00
2022-12-17T09:01:55.457Z,97581.00
2022-12-17T09:04:41.480Z,97555.00
2022-12-17T09:07:28.526Z,97584.00
2022-12-17T09:10:14.059Z,97583.00
2022-12-17T09:13:04.361Z,97604.00
2022-12-17T09:15:50.806Z,97616.00
2022-12-17T09:18:37.947Z,97607.00
2022-12-17T09:21:24.378Z,97602.00
2022-12-17T09:24:11.338Z,97616.00
2022-12-17T09:26:56.814Z,97620.00
2022-12-17T09:29:42.395Z,97613.00
2022-12-17T09:32:27.889Z,97612.00
2022-12-17T09:35:13.367Z,97610.00
2022-12-17T09:37:58.873Z,97616.00
2022-12-17T09:40:48.373Z,97592.00
2022-12-17T09:43:48.961Z,97621.00
2022-12-17T09:46:46.075Z,97635.00
2022-12-17T09:49:38.785Z,97625.00
2022-12-17T09:52:39.264Z,97636.00
2022-12-17T09:55:36.280Z,97635.00
2022-12-17T09:58:24.501Z,97624.00
2022-12-17T10:01:12.384Z,97604.00
2022-12-17T10:04:03.890Z,97627.00
2022-12-17T10:06:51.023Z,97647.00
2022-12-17T10:09:37.827Z,97654.00
2022-12-17T10:12:33.268Z,97645.00
2022-12-17T10:15:21.086Z,97658.00
2022-12-17T10:18:06.735Z,97635.00
2022-12-17T10:20:57.913Z,97648.00
2022-12-17T10:23:56.790Z,97632.00
2022-12-17T10:26:45.742Z,97376.00
2022-12-17T10:29:34.279Z,97358.00
2022-12-17T10:32:29.916Z,97613.00
2022-12-17T10:35:30.072Z,97346.00
2022-12-17T10:38:15.595Z,97655.00
2022-12-17T10:41:01.168Z,97336.00
2022-12-17T10:43:49.537Z,97627.00
2022-12-17T10:46:47.339Z,97642.00
2022-12-17T10:49:37.421Z,97315.00
2022-12-17T10:52:39.721Z,97321.00
2022-12-17T10:55:40.807Z,97654.00
2022-12-17T10:58:34.234Z,97650.00
2022-12-17T11:01:22.463Z,97678.00
2022-12-17T11:04:10.868Z,97581.00
2022-12-17T11:07:02.258Z,97658.00
2022-12-17T11:10:06.969Z,97650.00
2022-12-17T11:13:02.484Z,97651.00
2022-12-17T11:15:56.785Z,97654.00
2022-12-17T11:18:49.341Z,97652.00
2022-12-17T11:21:41.821Z,97650.00
2022-12-17T11:24:39.282Z,97667.00
2022-12-17T11:27:29.825Z,97647.00
2022-12-17T11:30:15.734Z,97655.00
2022-12-17T11:33:23.201Z,97664.00
2022-12-17T11:36:24.280Z,97662.00
2022-12-17T11:39:27.484Z,97668.00
2022-12-17T11:42:35.221Z,97669.00
2022-12-17T11:45:35.833Z,97655.00
2022-12-17T11:48:33.124Z,97668.00
2022-12-17T11:51:28.395Z,97642.00
2022-12-17T11:54:24.818Z,97463.00
2022-12-17T11:57:21.434Z,97495.00
2022-12-17T12:00:18.481Z,97728.00
2022-12-17T12:03:21.736Z,97736.00
2022-12-17T12:06:16.080Z,97738.00
2022-12-17T12:09:26.269Z,97750.00
2022-12-17T12:12:20.989Z,97727.00
2022-12-17T12:15:16.612Z,97522.00
2022-12-17T12:18:09.930Z,97535.00
2022-12-17T12:21:26.682Z,97721.00
2022-12-17T12:24:30.427Z,97726.00
2022-12-17T12:27:40.772Z,97718.00
2022-12-17T12:30:34.820Z,97672.00
2022-12-17T12:33:37.478Z,97728.00
2022-12-17T12:36:41.238Z,97754.00
2022-12-17T12:39:37.217Z,97703.00
2022-12-17T12:42:34.077Z,97694.00
2022-12-17T12:45:26.335Z,97706.00
2022-12-17T12:48:21.287Z,97689.00
2022-12-17T12:51:16.549Z,97709.00
2022-12-17T12:54:16.597Z,97685.00
2022-12-17T12:57:02.574Z,97625.00
2022-12-17T12:59:53.304Z,97465.00
2022-12-17T13:02:47.653Z,97707.00
2022-12-17T13:05:34.400Z,97708.00
2022-12-17T13:08:06.698Z,97674.00
2022-12-17T13:10:35.769Z,97685.00
2022-12-17T13:13:18.657Z,97687.00
2022-12-17T13:15:54.390Z,97695.00
2022-12-17T13:18:30.341Z,97701.00
2022-12-17T13:21:05.208Z,97760.00
2022-12-17T13:23:36.746Z,97521.00
2022-12-17T13:26:24.934Z,97525.00
2022-12-17T13:29:13.002Z,97742.00
2022-12-17T13:32:04.454Z,97744.00
2022-12-17T13:34:52.150Z,97805.00
2022-12-17T13:37:33.108Z,97743.00
2022-12-17T13:40:17.816Z,97761.00
2022-12-17T13:42:47.779Z,97758.00
2022-12-17T13:45:18.641Z,97780.00
2022-12-17T13:47:56.074Z,97803.00
2022-12-17T13:50:35.975Z,97777.00
2022-12-17T13:53:13.537Z,97568.00
2022-12-17T13:55:42.040Z,97765.00
2022-12-17T13:58:24.632Z,97793.00
2022-12-17T14:01:06.366Z,97822.00
2022-12-17T14:04:04.566Z,97799.00
2022-12-17T14:06:29.014Z,97792.00
2022-12-17T14:08:59.958Z,97798.00
2022-12-17T14:11:46.620Z,97554.00
2022-12-17T14:14:29.905Z,97804.00
2022-12-17T14:16:58.255Z,97809.00
2022-12-17T14:19:30.131Z,97818.00
2022-12-17T14:21:58.668Z,97818.00
2022-12-17T14:24:29.828Z,97496.00
2022-12-17T14:27:00.749Z,97816.00
2022-12-17T14:29:32.507Z,97822.00
2022-12-17T14:32:03.890Z,97835.00
2022-12-17T14:34:44.230Z,97784.00
2022-12-17T14:37:20.627Z,97838.00
2022-12-17T14:39:50.347Z,97814.00
2022-12-17T14:42:26.684Z,97804.00
2022-12-17T14:44:59.261Z,97523.00
2022-12-17T14:47:31.746Z,97810.00
2022-12-17T14:50:08.036Z,97539.00
2022-12-17T14:52:48.813Z,97827.00
2022-12-17T14:55:27.521Z,97792.00
2022-12-17T14:58:21.369Z,97739.00
2022-12-17T15:00:54.775Z,97798.00
2022-12-17T15:03:28.550Z,97804.00
2022-12-17T15:06:02.412Z,97808.00
2022-12-17T15:08:37.086Z,97537.00
2022-12-17T15:11:05.954Z,97812.00
2022-12-17T15:13:34.508Z,97773.00
2022-12-17T15:16:03.220Z,97809.00
2022-12-17T15:18:31.264Z,97824.00
2022-12-17T15:21:01.036Z,97831.00
2022-12-17T15:23:29.161Z,97834.00
2022-12-17T15:25:57.440Z,97773.00
2022-12-17T15:28:25.929Z,97827.00
2022-12-17T15:30:54.366Z,97823.00
2022-12-17T15:33:22.563Z,97831.00
2022-12-17T15:35:50.590Z,97829.00
2022-12-17T15:38:20.006Z,97832.00
2022-12-17T15:40:48.072Z,97829.00
2022-12-17T15:43:15.916Z,97846.00
2022-12-17T15:45:46.341Z,97826.00
2022-12-17T15:48:16.756Z,97840.00
2022-12-17T15:50:44.801Z,97831.00
2022-12-17T15:53:13.215Z,97824.00
2022-12-17T15:55:43.462Z,97818.00
2022-12-17T15:58:12.301Z,97827.00
2022-12-17T16:00:40.392Z,97831.00
2022-12-17T16:03:08.597Z,97817.00
2022-12-17T16:05:36.656Z,97833.00
2022-12-17T16:08:04.800Z,97836.00
2022-12-17T16:10:32.802Z,97842.00
2022-12-17T16:13:02.260Z,97841.00
2022-12-17T16:15:31.120Z,97836.00
2022-12-17T16:17:59.459Z,97853.00
2022-12-17T16:20:27.568Z,97845.00
2022-12-17T16:22:55.828Z,97844.00
2022-12-17T16:25:23.841Z,97847.00
2022-12-17T16:27:52.020Z,97850.00
2022-12-17T16:30:21.508Z,97859.00
2022-12-17T16:32:49.522Z,97622.00
2022-12-17T16:35:17.897Z,97855.00
2022-12-17T16:37:46.116Z,97843.00
2022-12-17T16:40:14.279Z,97859.00
2022-12-17T16:42:42.324Z,97855.00
2022-12-17T16:45:11.414Z,97848.00
2022-12-17T16:47:40.992Z,97872.00
2022-12-17T16:50:09.437Z,97870.00
2022-12-17T16:52:37.533Z,97869.00
2022-12-17T16:55:06.413Z,97867.00
2022-12-17T16:57:34.510Z,97852.00
2022-12-17T17:00:04.389Z,97873.00
2022-12-17T17:02:32.626Z,97868.00
2022-12-17T17:05:02.152Z,97876.00
2022-12-17T17:07:30.239Z,97873.00
2022-12-17T17:09:58.657Z,97876.00
2022-12-17T17:12:26.937Z,97874.00
2022-12-17T17:14:55.076Z,97873.00
2022-12-17T17:17:54.409Z,97862.00
2022-12-17T17:20:14.079Z,97876.00
2022-12-17T17:22:42.220Z,97861.00
2022-12-17T17:25:10.541Z,97860.00
2022-12-17T17:27:38.629Z,97871.00
2022-12-17T17:30:08.377Z,97846.00
2022-12-17T17:32:36.655Z,97876.00
2022-12-17T17:35:05.621Z,97874.00
2022-12-17T17:37:34.996Z,97869.00
2022-12-17T17:40:03.082Z,97882.00
2022-12-17T17:42:31.126Z,97869.00
2022-12-17T17:44:59.144Z,97879.00
2022-12-17T17:47:30.057Z,97877.00
2022-12-17T17:49:58.145Z,97872.00
2022-12-17T17:52:26.201Z,97869.00
2022-12-17T17:54:55.558Z,97888.00
2022-12-17T17:57:23.799Z,97887.00
2022-12-17T17:59:51.880Z,97875.00
2022-12-17T18:02:20.048Z,97882.00
2022-12-17T18:04:48.399Z,97871.00
2022-12-17T18:07:25.775Z,97882.00
2022-12-17T18:09:56.939Z,97871.00
2022-12-17T18:12:42.620Z,97900.00
2022-12-17T18:15:16.939Z,97886.00
2022-12-17T18:17:47.346Z,97935.00
2022-12-17T18:20:15.909Z,97892.00
2022-12-17T18:22:45.758Z,97885.00
2022-12-17T18:25:16.122Z,97900.00
2022-12-17T18:27:44.733Z,97898.00
2022-12-17T18:30:16.099Z,97905.00
2022-12-17T18:32:44.434Z,97912.00
2022-12-17T18:35:12.496Z,97898.00
2022-12-17T18:37:40.638Z,97911.00
2022-12-17T18:40:10.341Z,97913.00
2022-12-17T18:42:57.297Z,97910.00
2022-12-17T18:45:25.388Z,97920.00
2022-12-17T18:47:53.488Z,97918.00
2022-12-17T18:50:21.552Z,97901.00
2022-12-17T18:52:49.613Z,97910.00
2022-12-17T18:55:17.815Z,97873.00
2022-12-17T18:57:47.215Z,97911.00
2022-12-17T19:00:16.121Z,97927.00
2022-12-17T19:02:45.025Z,97888.00
2022-12-17T19:05:13.213Z,97882.00
2022-12-17T19:07:41.278Z,97891.00
2022-12-17T19:10:10.662Z,97897.00
2022-12-17T19:12:38.721Z,97903.00
2022-12-17T19:15:09.942Z,97908.00
2022-12-17T19:17:37.984Z,97910.00
2022-12-17T19:20:07.351Z,97919.00
2022-12-17T19:22:35.408Z,97926.00
2022-12-17T19:25:03.479Z,97920.00
2022-12-17T19:27:31.482Z,97931.00
2022-12-17T19:29:59.801Z,97834.00
2022-12-17T19:32:29.142Z,97933.00
2022-12-17T19:34:57.186Z,97953.00
2022-12-17T19:37:25.276Z,97945.00
2022-12-17T19:39:53.314Z,97948.00
2022-12-17T19:42:33.504Z,97939.00
2022-12-17T19:45:05.934Z,97931.00
2022-12-17T19:47:35.343Z,97957.00
2022-12-17T19:50:03.365Z,97962.00
2022-12-17T19:52:31.511Z,97965.00
2022-12-17T19:54:59.579Z,97965.00
2022-12-17T19:57:27.643Z,97947.00
2022-12-17T19:59:55.725Z,97946.00
2022-12-17T20:02:28.295Z,97960.00
2022-12-17T20:05:00.460Z,97968.00
2022-12-17T20:07:28.531Z,97968.00
2022-12-17T20:09:56.541Z,97950.00
2022-12-17T20:12:24.657Z,97964.00
2022-12-17T20:14:52.700Z,97960.00
2022-12-17T20:17:21.215Z,97978.00
2022-12-17T20:19:52.222Z,97977.00
2022-12-17T20:22:23.264Z,97959.00
2022-12-17T20:24:53.117Z,97976.00
2022-12-17T20:27:22.978Z,97971.00
2022-12-17T20:29:51.004Z,97980.00
2022-12-17T20:32:21.128Z,97959.00
2022-12-17T20:34:49.245Z,97972.00
2022-12-17T20:37:17.326Z,97970.00
2022-12-17T20:39:46.674Z,97974.00
2022-12-17T20:42:14.754Z,97961.00
2022-12-17T20:44:43.069Z,97972.00
2022-12-17T20:47:12.106Z,97980.00
2022-12-17T20:49:40.129Z,97977.00
2022-12-17T20:52:08.195Z,97971.00
2022-12-17T20:54:36.292Z,97988.00
2022-12-17T20:57:05.799Z,97958.00
2022-12-17T20:59:33.936Z,97977.00
2022-12-17T21:02:02.045Z,97967.00
2022-12-17T21:04:30.228Z,97968.00
2022-12-17T21:06:58.346Z,97972.00
2022-12-17T21:09:26.394Z,97952.00
2022-12-17T21:11:54.424Z,97981.00
2022-12-17T21:14:23.837Z,97990.00
2022-12-17T21:16:51.925Z,97971.00
2022-12-17T21:19:20.936Z,97987.00
2022-12-17T21:21:49.222Z,97983.00
2022-12-17T21:24:17.375Z,97976.00
2022-12-17T21:26:47.742Z,97928.00
2022-12-17T21:29:18.350Z,97967.00
2022-12-17T21:31:50.779Z,97989.00
2022-12-17T21:34:23.261Z,97935.00
2022-12-17T21:36:52.407Z,98035.00
2022-12-17T21:39:21.949Z,98006.00
2022-12-17T21:42:04.440Z,97978.00
2022-12-17T21:44:32.549Z,97990.00
2022-12-17T21:47:02.208Z,97985.00
2022-12-17T21:49:30.453Z,97993.00
2022-12-17T21:51:59.938Z,97989.00
2022-12-17T21:54:28.245Z,97981.00
2022-12-17T21:56:56.326Z,98001.00
2022-12-17T21:59:24.468Z,97999.00
2022-12-17T22:01:53.481Z,97992.00
2022-12-17T22:04:23.066Z,97997.00
2022-12-17T22:07:03.094Z,98001.00
2022-12-17T22:10:08.925Z,98002.00
2022-12-17T22:12:45.179Z,97987.00
2022-12-17T22:15:13.428Z,97998.00
2022-12-17T22:17:42.707Z,98022.00
2022-12-17T22:20:13.682Z,98011.00
2022-12-17T22:22:41.752Z,98012.00
2022-12-17T22:25:11.661Z,98021.00
2022-12-17T22:27:40.667Z,98002.00
2022-12-17T22:30:32.160Z,97994.00
2022-12-17T22:33:00.615Z,97935.00
2022-12-17T22:37:52.757Z,98017.00
2022-12-17T22:41:46.532Z,98010.00
2022-12-17T22:44:34.612Z,98014.00
2022-12-17T22:44:44.261Z,98033.00
2022-12-17T22:47:10.736Z,98008.00
2022-12-17T22:49:41.478Z,98022.00
2022-12-17T22:52:13.582Z,98030.00
2022-12-17T22:54:43.562Z,98042.00
2022-12-17T22:57:35.103Z,98030.00
2022-12-17T23:00:00.178Z,98024.00
2022-12-17T23:02:28.276Z,98026.00
2022-12-17T23:04:56.353Z,98032.00
2022-12-17T23:07:31.509Z,98055.00
2022-12-17T23:10:00.127Z,98040.00
2022-12-17T23:12:45.895Z,98042.00
2022-12-17T23:15:13.938Z,98035.00
2022-12-17T23:17:42.084Z,98032.00
2022-12-17T23:20:11.813Z,98029.00
2022-12-17T23:22:41.187Z,98036.00
2022-12-17T23:25:10.899Z,98038.00
2022-12-17T23:27:39.288Z,98055.00
2022-12-17T23:30:10.596Z,98012.00
2022-12-17T23:32:38.851Z,98078.00
2022-12-17T23:35:08.700Z,98003.00
2022-12-17T23:37:39.946Z,98043.00
2022-12-17T23:40:12.885Z,98044.00
2022-12-17T23:42:41.178Z,98045.00
2022-12-17T23:45:11.802Z,98035.00
2022-12-17T23:47:42.177Z,98007.00
2022-12-17T23:50:12.557Z,98033.00
2022-12-17T23:52:40.909Z,98033.00
2022-12-17T23:55:11.597Z,98035.00
2022-12-17T23:57:40.077Z,98026.00
